Station: Mackay  

  Atmospheric Gas Attenuation - ITU Rec 676-11   ----------------- dB/100km -----------------
Date Time Temp RH % AH g/m3 Dew Point Wind Direction Speed kph Gust kph Barometer mB Rainfall Since 9am 24GHz 47GHz 76GHz 122GHz 134GHz 241GHz
05/05 17:20 23.7 82 17.54 20.4 11 15 1014 0 38.0 37.9 71.7 189.5 206.3 716.2
05/05 17:10 23.8 82 17.64 20.5 13 19 1013.8 0 38.2 38.1 72.0 190.4 207.5 720.5
05/05 17:00 24 81 17.62 20.5 13 20 1013.7 0 38.1 37.9 71.7 189.7 206.6 717.5
05/05 16:50 24.1 81 17.72 20.6 13 17 1013.7 0 38.3 38.1 72.1 190.7 207.9 721.8
05/05 16:40 24.3 79 17.48 20.4 11 15 1013.6 0 37.8 37.5 70.8 187.2 203.7 707.3
05/05 16:30 24.3 76 16.82 19.8 11 17 1013.6 0 36.4 36.3 67.8 179.2 193.9 673.1
05/05 16:20 24.3 79 17.48 20.4 13 15 1013.5 0 37.8 37.5 70.8 187.2 203.7 707.2
05/05 16:10 24.3 78 17.26 20.2 13 17 1013.6 0 37.3 37.1 69.8 184.5 200.4 695.8
05/05 16:00 24.3 80 17.7 20.6 13 24 1013.5 0 38.3 37.9 71.8 189.9 207.0 718.7
05/05 15:50 24 79 17.19 20.1 13 20 1013.4 0 37.2 37.1 69.7 184.4 200.1 694.8
05/05 15:40 24.8 79 17.98 20.9 11 17 1013.2 0 38.8 38.2 72.6 192.0 209.8 728.5
05/05 15:30 24.4 80 17.8 20.7 13 20 1013.2 0 38.5 38.1 72.2 190.8 208.2 722.9
05/05 15:20 24.5 79 17.68 20.6 13 17 1013.2 0 38.2 37.8 71.5 189.1 206.1 715.6
05/05 15:10 24.3 80 17.7 20.6 15 20 1013.3 0 38.3 37.9 71.8 189.9 207.0 718.6
05/05 15:00 24.7 79 17.88 20.8 15 22 1013.4 0 38.6 38.1 72.3 191.1 208.6 724.3
05/05 14:50 24.5 79 17.68 20.6 15 20 1013.3 0 38.2 37.8 71.5 189.1 206.1 715.7
05/05 14:40 25 77 17.72 20.7 15 19 1013.4 0 38.2 37.7 71.2 188.4 205.3 713.1
05/05 14:30 25.2 77 17.93 20.9 13 19 1013.5 0 38.7 38.0 72.0 190.5 208.0 722.2
05/05 14:20 24.9 77 17.63 20.6 13 19 1013.5 0 38.1 37.5 70.9 187.5 204.3 709.4
05/05 14:10 25.1 78 18.06 21 11 19 1013.6 0 38.9 38.2 72.7 192.3 210.2 730.0
05/05 14:00 25.1 78 18.06 21 13 20 1013.6 0 38.9 38.2 72.7 192.3 210.2 730.0
05/05 13:50 25.4 77 18.13 21.1 11 17 1013.7 0 39.1 38.2 72.8 192.4 210.4 730.9
05/05 13:40 25.1 79 18.29 21.2 13 17 1013.8 0 39.4 38.7 73.8 195.2 213.7 742.2
05/05 13:30 25.1 77 17.82 20.8 13 22 1013.8 0 38.4 37.8 71.6 189.4 206.6 717.6
05/05 13:20 25.2 76 17.69 20.7 13 17 1013.8 0 38.2 37.5 70.9 187.6 204.4 709.9
05/05 13:10 25.1 79 18.29 21.2 11 15 1014 0 39.4 38.7 73.8 195.2 213.7 742.3
05/05 13:00 25 76 17.49 20.5 13 19 1014 0 37.7 37.3 70.2 185.7 202.0 701.5
05/05 12:50 25.3 75 17.56 20.5 15 19 1014.2 0 37.9 37.3 70.3 185.8 202.3 702.4
05/05 12:40 25.5 77 18.23 21.2 13 19 1014.3 0 39.3 38.4 73.2 193.5 211.7 735.4
05/05 12:30 25.4 79 18.6 21.5 9 17 1014.5 0 40.1 39.2 75.0 198.3 217.6 756.0
05/05 12:20 24.6 76 17.1 20.1 11 13 1014.7 0 37.0 36.8 68.9 182.0 197.4 685.3
05/05 12:10 25.2 78 18.16 21.1 9 13 1014.8 0 39.1 38.4 73.2 193.5 211.6 734.9
05/05 12:00 24.7 79 17.88 20.8 11 20 1014.9 0 38.6 38.1 72.4 191.3 208.8 725.1
05/05 11:50 25 78 17.96 20.9 11 17 1015.1 0 38.7 38.2 72.4 191.6 209.2 726.5
05/05 11:40 25.1 80 18.52 21.4 11 15 1015.1 0 39.9 39.2 74.9 198.2 217.4 755.1
05/05 11:30 25 77 17.72 20.7 11 19 1015.1 0 38.2 37.7 71.3 188.6 205.6 714.0
05/05 11:20 24.8 78 17.75 20.7 15 19 1015.4 0 38.3 37.9 71.7 189.5 206.6 717.6
05/05 11:10 25.2 79 18.39 21.3 11 13 1015.3 0 39.6 38.9 74.3 196.4 215.2 747.3
05/05 11:00 25.2 81 18.86 21.7 11 20 1015.6 0 40.6 39.8 76.5 202.3 222.4 772.4
05/05 10:50 25 78 17.96 20.9 11 15 1015.8 0 38.7 38.2 72.5 191.7 209.3 726.9
05/05 10:40 25 78 17.96 20.9 11 15 1015.9 0 38.7 38.2 72.5 191.7 209.3 726.9
05/05 10:30 25 80 18.42 21.3 13 20 1015.9 0 39.7 39.1 74.6 197.4 216.3 751.2
05/05 10:20 24.8 80 18.21 21.1 13 17 1016 0 39.3 38.8 73.9 195.3 213.7 742.1
05/05 10:10 24.5 80 17.9 20.8 15 19 1016.1 0 38.7 38.3 72.7 192.2 209.8 728.6
05/05 10:00 24.3 82 18.15 21 11 19 1016.3 0 39.2 38.9 74.1 195.9 214.2 743.9
05/05 09:50 24.7 86 19.47 22.2 11 19 1016.1 0 42.0 41.2 79.9 211.4 233.5 810.9
05/05 09:40 23.8 86 18.5 21.3 11 15 1016.4 0 40.0 39.8 76.2 201.6 221.1 767.8
05/05 09:30 23.5 87 18.4 21.2 11 20 1016.4 0 39.8 39.8 76.1 201.1 220.4 765.4
05/05 09:20 23.2 87 18.09 20.9 13 15 1016.4 0 39.2 39.3 74.9 198.0 216.5 751.6
05/05 09:10 23.1 89 18.4 21.2 15 19 1016.4 0 39.9 39.9 76.5 202.2 221.6 769.5
05/05 09:00 22.7 90 18.18 21 15 20 1016.4 0 39.4 39.7 75.8 200.5 219.4 761.5
05/05 08:50 22.5 91 18.17 21 11 13 1016.3 0.6 39.4 39.8 76.0 200.8 219.8 763.0
05/05 08:40 21.7 92 17.55 20.3 13 17 1016.2 0.6 38.2 39.0 73.8 195.0 212.4 737.1
05/05 08:30 21 94 17.22 20 11 17 1016.3 0.6 37.5 38.7 72.9 192.6 209.2 726.0
05/05 08:20 20.3 95 16.71 19.5 9 11 1016.2 0.6 36.5 38.0 71.1 187.9 203.2 704.9
05/05 08:10 19.8 96 16.4 19.1 9 11 1016.3 0.6 35.9 37.6 70.1 185.2 199.7 692.7
05/05 08:00 19.5 96 16.11 18.8 11 17 1016.4 0.6 35.3 37.2 69.0 182.3 196.0 679.8
05/05 07:50 19.1 97 15.9 18.6 13 15 1016.3 0.6 34.9 37.0 68.4 180.6 193.8 672.0
05/05 07:40 18.9 97 15.71 18.4 11 13 1016.1 0.6 34.5 36.7 67.6 178.6 191.3 663.4
05/05 07:30 18.6 97 15.44 18.1 13 17 1016.1 0.6 33.9 36.3 66.6 175.9 187.9 651.5
05/05 07:20 18.3 98 15.32 18 13 15 1016 0.6 33.7 36.2 66.3 175.1 186.8 647.6
05/05 07:10 18.2 98 15.23 17.9 11 15 1015.8 0.6 33.5 36.1 66.0 174.2 185.6 643.5
05/05 07:00 18.1 98 15.14 17.8 11 15 1015.7 0.6 33.3 36.0 65.6 173.3 184.5 639.5
05/05 06:50 17.9 98 14.96 17.6 9 11 1015.7 0.6 33.0 35.7 64.9 171.5 182.2 631.6
05/05 06:40 17.8 98 14.87 17.5 9 13 1015.4 0.6 32.8 35.6 64.6 170.5 181.0 627.4
05/05 06:30 17.8 98 14.87 17.5 11 13 1015.3 0.6 32.8 35.6 64.6 170.5 181.0 627.4
05/05 06:20 17.9 98 14.96 17.6 13 13 1015.2 0.6 33.0 35.7 64.9 171.4 182.1 631.3
05/05 06:10 17.8 98 14.87 17.5 11 13 1015 0.6 32.8 35.5 64.6 170.5 181.0 627.3
05/05 06:00 17.8 98 14.87 17.5 11 15 1014.9 0.6 32.8 35.5 64.6 170.4 181.0 627.2
05/05 05:50 17.8 98 14.87 17.5 13 15 1014.9 0.6 32.8 35.5 64.6 170.4 181.0 627.2
05/05 05:40 17.9 98 14.96 17.6 13 15 1014.9 0.6 33.0 35.7 64.9 171.3 182.1 631.2
05/05 05:30 17.8 98 14.87 17.5 11 15 1014.7 0.6 32.8 35.5 64.5 170.4 180.9 627.1
05/05 05:20 17.8 97 14.72 17.3 13 13 1014.6 0.6 32.5 35.2 63.8 168.5 178.6 619.1
05/05 05:10 17.8 97 14.72 17.3 13 15 1014.6 0.6 32.5 35.2 63.8 168.5 178.6 619.1
05/05 05:00 17.8 97 14.72 17.3 13 17 1014.4 0.6 32.5 35.2 63.8 168.5 178.6 619.0
05/05 04:50 17.8 97 14.72 17.3 11 13 1014.3 0.6 32.5 35.2 63.8 168.5 178.6 618.9
05/05 04:40 17.8 97 14.72 17.3 11 13 1014.3 0.6 32.5 35.2 63.8 168.5 178.6 618.9
05/05 04:30 17.8 97 14.72 17.3 11 13 1014.4 0.6 32.5 35.2 63.8 168.5 178.6 619.0
05/05 04:20 17.9 97 14.81 17.4 11 13 1014.4 0.6 32.7 35.4 64.2 169.4 179.7 623.0
05/05 04:10 18 97 14.9 17.5 11 13 1014.4 0.6 32.8 35.5 64.5 170.3 180.9 626.9
05/05 04:00 18 97 14.9 17.5 13 17 1014.3 0.6 32.8 35.5 64.5 170.3 180.9 626.9
05/05 03:50 18.1 97 14.99 17.6 13 15 1014.3 0.6 33.0 35.6 64.8 171.2 182.0 630.8
05/05 03:40 18.2 97 15.08 17.7 13 15 1014.3 0.4 33.2 35.7 65.2 172.1 183.1 634.8
05/05 03:30 18.3 97 15.17 17.8 11 13 1014.4 0.4 33.4 35.9 65.5 173.0 184.3 638.8
05/05 03:20 18.3 97 15.17 17.8 13 15 1014.3 0.4 33.4 35.9 65.5 173.0 184.3 638.8
05/05 03:10 18.4 97 15.26 17.9 13 15 1014.3 0.4 33.6 36.0 65.8 173.9 185.4 642.8
05/05 03:00 18.4 97 15.26 17.9 13 17 1014.4 0.4 33.6 36.0 65.8 173.9 185.4 642.8
05/05 02:50 18.4 97 15.26 17.9 13 17 1014.5 0.4 33.6 36.0 65.8 173.9 185.4 642.8
05/05 02:40 18.5 97 15.35 18 11 11 1014.6 0.4 33.8 36.1 66.2 174.8 186.6 646.9
05/05 02:30 18.6 97 15.44 18.1 11 13 1014.7 0.4 33.9 36.3 66.5 175.7 187.7 650.9
05/05 02:20 18.6 97 15.44 18.1 11 13 1014.8 0.4 33.9 36.3 66.5 175.7 187.7 650.9
05/05 02:10 18.7 97 15.53 18.2 13 17 1014.9 0.4 34.1 36.4 66.9 176.7 188.9 654.9
05/05 02:00 18.7 97 15.53 18.2 11 17 1014.9 0.4 34.1 36.4 66.9 176.7 188.9 654.9
05/05 01:50 18.8 97 15.62 18.3 13 15 1014.9 0.4 34.3 36.5 67.2 177.5 190.0 658.9
05/05 01:40 18.9 97 15.71 18.4 11 13 1015 0.4 34.5 36.7 67.6 178.5 191.2 662.9
05/05 01:30 18.9 97 15.71 18.4 11 15 1015.2 0.4 34.5 36.7 67.6 178.5 191.2 663.0
05/05 01:20 19 96 15.64 18.3 11 15 1015.3 0.4 34.3 36.5 67.2 177.4 189.9 658.4
05/05 01:10 19 96 15.64 18.3 11 13 1015.4 0.4 34.3 36.5 67.2 177.4 189.9 658.5
05/05 01:00 19.1 96 15.74 18.4 11 15 1015.4 0.4 34.5 36.6 67.5 178.4 191.2 663.0
05/05 00:50 19.1 96 15.74 18.4 11 13 1015.5 0.4 34.5 36.7 67.6 178.4 191.2 663.0

Last Refresh: 05-May-2026 16:55:01

Bureau of Meteorology